EKCHEDDK

Guest
Details From EKCH - Kastrup
To EDDK - Koln Bonn
Flight Number -
Tags generated
Created
Modified
Stats Distance 348 nm / 645 km
Max Altitude 34,600 ft / 10,546 m
Waypoints 7
Social Downloads 1
Likes 0
Share VATSIM

Download

Looking for another format? Having issues loading an existing format? Contact us
Advertisement - Login to hide

Notes

Basic altitude profile: - Ascent Rate: 2500ft/min - Ascent Speed: 250kts - Cruise Altitude: 35000ft - Cruise Speed: 420kts - Descent Rate: 1500ft/min - Descent Speed: 250kts Options: - Use NATs: yes - Use PACOTS: yes - Use low airways: no - Use high airways: yes

Route

EKCH TOSPA UP605 OSN EDDK

ID Type Via Altitude Latitude Longitude Leg Dist Tot Dist Heading (true) Name
O EKCH APT - 0 ft / 0 m 55.61291˚ 12.64096˚ - 0 nm - Kastrup
TOSPA FIX - 34,000 ft / 10,363 m 54.11389˚ 10.98361˚ 106 nm 106 nm 213° / 212° -
LUB VOR UP605 (AWY-HI) 34,000 ft / 10,363 m 53.94074˚ 10.66779˚ 15 nm 121 nm 227° / 227° LUBECK VOR
HAM VOR UP605 (AWY-HI) 34,000 ft / 10,363 m 53.68558˚ 10.20500˚ 22 nm 144 nm 227° / 227° HAMBURG VORTAC
VALKI FIX UP605 (AWY-HI) 34,600 ft / 10,546 m 53.13528˚ 9.47361˚ 42 nm 186 nm 219° / 218° -
OSN VOR UP605 (AWY-HI) 24,000 ft / 7,315 m 52.20014˚ 8.28552˚ 70 nm 257 nm 218° / 217° OSNABRUCK VOR
O EDDK APT - 0 ft / 0 m 50.86580˚ 7.13890˚ 90 nm 348 nm 209° / 208° Koln Bonn

Altitude Profile

Advertisement - Login to hide

Weather


0- 5 10 15 20 25 30 35+ Temperature / ° C

Clouds and Precipitation
Forecast for 2018-05-21 12:00 UTC. Updated 3 hours ago

Ground ~20,000 ft ~40,000 ft Winds

EKCH

Details ICAO EKCH (CPH)
Name Kastrup
Region Denmark / Faroe Islands
Timezone Europe/Copenhagen (UTC+2.0)
Stats Elevation 17 ft / 5 m (AMSL)
Location 55.612915° 12.640961°
Runways 3
Magnetic Variation 3.788° E

METAR

EKCH 211420Z 08009KT 050V110 CAVOK 20/06 Q1024 NOSIG

Decode

TAF

TAF AMD EKCH 211353Z 2113/2212 09010KT CAVOK= TAF AMD LIPE 211354Z 2113/2212 08010KT 9999 SCT070 TEMPO 2114/2117 4000 TSRA BECMG 2117/2119 VRB06KT TEMPO 2200/2209 RA

Decode

Departure Runways

ID Width Length Bearing (true) Bearing (mag) Surface Threshold Offset Overrun Length
04L 148 ft / 45 m 11,848 ft / 3,611 m 41.15° 37.36° Asphalt 0 ft / 0 m 0 ft / 0 m
04R 148 ft / 45 m 10,814 ft / 3,296 m 41.15° 37.36° Asphalt 0 ft / 0 m 0 ft / 0 m
12 148 ft / 45 m 10,047 ft / 3,063 m 123.21° 119.42° Asphalt 2,313 ft / 705 m 0 ft / 0 m
22L 148 ft / 45 m 10,814 ft / 3,296 m 221.17° 217.38° Asphalt 0 ft / 0 m 0 ft / 0 m
22R 148 ft / 45 m 11,848 ft / 3,611 m 221.18° 217.39° Asphalt 2,018 ft / 615 m 0 ft / 0 m
30 148 ft / 45 m 10,047 ft / 3,063 m 303.25° 299.46° Asphalt 886 ft / 270 m 0 ft / 0 m

EDDK

Details ICAO EDDK (CGN)
Name Koln Bonn
Region Germany - Civil
Timezone Europe/Berlin (UTC+2.0)
Stats Elevation 302 ft / 92 m (AMSL)
Location 50.865801° 7.138903°
Runways 3
Magnetic Variation 1.987° E

METAR

EDDK 211420Z 11007KT 060V150 CAVOK 25/08 Q1013 NOSIG

Decode

TAF

TAF EDDK 211100Z 2112/2218 11011KT CAVOK PROB30 TEMPO 2112/2114 12015G25KT BECMG 2116/2119 11004KT PROB30 TEMPO 2202/2205 11010KT TSRA SCT020CB PROB30 TEMPO 2211/2218 10010KT TSRA BKN025CB

Decode

Destination Runways

ID Width Length Bearing (true) Bearing (mag) Surface Threshold Offset Overrun Length
06 148 ft / 45 m 8,047 ft / 2,453 m 64.33° 62.34° Concrete 0 ft / 0 m 197 ft / 60 m
14L 197 ft / 60 m 12,497 ft / 3,809 m 137.55° 135.56° Asphalt 0 ft / 0 m 197 ft / 60 m
14R 148 ft / 45 m 6,102 ft / 1,860 m 137.54° 135.55° Asphalt 0 ft / 0 m 197 ft / 60 m
24 148 ft / 45 m 8,047 ft / 2,453 m 244.36° 242.37° Concrete 0 ft / 0 m 197 ft / 60 m
32L 148 ft / 45 m 6,102 ft / 1,860 m 317.56° 315.57° Asphalt 0 ft / 0 m 197 ft / 60 m
32R 197 ft / 60 m 12,497 ft / 3,809 m 317.58° 315.59° Asphalt 0 ft / 0 m 197 ft / 60 m

Approach Navaids

Runway Type Ident Frequency Range Bearing (true) Bearing (mag) Slope Elevation
14L Localiser IKES 110.90 MHz 18 nm / 33 km 137.58° 135.59° - 302 ft / 92 m (AMSL)
14L Glidescope IKES 110.90 MHz 10 nm / 19 km 137.56° 135.58° 3.00° 230 ft / 70 m (AMSL)
24 Localiser IKOW 109.10 MHz 18 nm / 33 km 244.34° 242.35° - 231 ft / 70 m (AMSL)
24 Glidescope IKOW 109.10 MHz 10 nm / 19 km 244.34° 242.36° 3.00° 272 ft / 83 m (AMSL)
32R Localiser IKEN 109.70 MHz 18 nm / 33 km 317.55° 315.56° - 230 ft / 70 m (AMSL)
32R Glidescope IKEN 109.70 MHz 10 nm / 19 km 317.56° 315.58° 3.00° 302 ft / 92 m (AMSL)

Popular Alternatives